Time;durP1;ratioP1;P1;durP2;ratioP2;P2;SDS_P1;SDS_P2;PMS_P1;PMS_P2;Temp;Humidity;BMP_temperature;BMP_pressure;BME280_temperature;BME280_humidity;BME280_pressure;Samples;Min_cycle;Max_cycle;Signal;HPM_P1;HPM_P2
2024/02/27 00:01:48;;;;;;;12.77;10.73;;;;;;;6.71;100.00;101375.13;5284691;28;20498;-77
2024/02/27 00:04:20;;;;;;;13.40;11.20;;;;;;;6.75;100.00;101387.88;5275875;28;20419;-77
2024/02/27 00:06:54;;;;;;;14.70;11.50;;;;;;;6.65;100.00;101376.31;5279483;28;20028;-77
2024/02/27 00:09:26;;;;;;;12.40;11.10;;;;;;;6.69;100.00;101379.59;5275497;28;20428;-77
2024/02/27 00:11:58;;;;;;;13.60;11.23;;;;;;;6.71;100.00;101395.97;5285553;28;20028;-77
2024/02/27 00:14:30;;;;;;;12.90;11.27;;;;;;;6.64;100.00;101397.25;5286877;28;20441;-77
2024/02/27 00:17:02;;;;;;;12.38;11.07;;;;;;;6.61;100.00;101400.88;5283625;28;20024;-77
2024/02/27 00:19:34;;;;;;;14.15;11.43;;;;;;;6.62;100.00;101399.09;5285913;28;20024;-77
2024/02/27 00:22:06;;;;;;;12.60;11.15;;;;;;;6.65;100.00;101391.94;5281140;28;20031;-77
2024/02/27 00:24:38;;;;;;;12.73;11.43;;;;;;;6.66;100.00;101393.63;5281953;28;20203;-77
2024/02/27 00:27:10;;;;;;;13.95;10.93;;;;;;;6.46;100.00;101373.16;5286819;28;20032;-77
2024/02/27 00:29:42;;;;;;;14.02;11.30;;;;;;;6.64;100.00;101410.28;5284327;28;20506;-77
2024/02/27 00:32:13;;;;;;;12.27;10.98;;;;;;;6.67;100.00;101410.94;5285115;28;20058;-77
2024/02/27 00:34:45;;;;;;;13.18;11.73;;;;;;;6.64;100.00;101399.88;5286497;28;20039;-77
2024/02/27 00:37:17;;;;;;;14.60;11.60;;;;;;;6.65;100.00;101411.94;5283912;28;20020;-77
2024/02/27 00:39:49;;;;;;;13.30;11.65;;;;;;;6.64;100.00;101410.28;5284663;28;20034;-77
2024/02/27 00:42:21;;;;;;;12.88;11.20;;;;;;;6.60;100.00;101408.78;5285494;28;20420;-77
2024/02/27 00:44:53;;;;;;;13.68;11.40;;;;;;;6.54;100.00;101412.56;5283412;28;20031;-77
2024/02/27 00:47:25;;;;;;;13.82;11.52;;;;;;;6.51;100.00;101410.97;5285439;28;20106;-77
2024/02/27 00:49:57;;;;;;;13.35;11.95;;;;;;;6.50;100.00;101421.50;5283919;28;20518;-77
2024/02/27 00:52:29;;;;;;;14.77;12.88;;;;;;;6.41;100.00;101430.69;5276836;28;20477;-77
2024/02/27 00:55:01;;;;;;;13.05;11.65;;;;;;;6.29;100.00;101413.19;5282947;28;20036;-77
2024/02/27 00:57:33;;;;;;;13.85;11.63;;;;;;;6.21;100.00;101420.56;5268813;28;20498;-77
2024/02/27 01:00:08;;;;;;;14.38;12.18;;;;;;;6.20;100.00;101416.28;5262105;28;20406;-77
2024/02/27 01:02:42;;;;;;;13.13;11.57;;;;;;;6.27;100.00;101421.06;5264464;28;20047;-77
2024/02/27 01:05:15;;;;;;;14.68;12.35;;;;;;;6.19;100.00;101412.03;5245954;28;20040;-77
2024/02/27 01:07:47;;;;;;;15.68;12.73;;;;;;;6.19;100.00;101406.81;5263485;28;20032;-77
2024/02/27 01:10:21;;;;;;;14.23;12.40;;;;;;;6.20;100.00;101401.50;5262476;28;20039;-77
2024/02/27 01:12:53;;;;;;;14.32;12.02;;;;;;;6.09;100.00;101415.13;5263245;28;20043;-77
2024/02/27 01:15:25;;;;;;;14.43;11.90;;;;;;;6.06;100.00;101410.13;5266409;28;20036;-77
2024/02/27 01:17:57;;;;;;;14.75;12.73;;;;;;;6.09;100.00;101415.13;5265131;28;20473;-77
2024/02/27 01:20:29;;;;;;;13.43;12.02;;;;;;;6.12;100.00;101418.50;5262365;28;20032;-77
2024/02/27 01:23:01;;;;;;;14.80;12.95;;;;;;;6.14;100.00;101422.69;5262070;28;20049;-77
2024/02/27 01:25:33;;;;;;;14.18;12.48;;;;;;;6.14;100.00;101427.91;5261459;28;20048;-77
2024/02/27 01:28:06;;;;;;;15.25;12.73;;;;;;;6.11;100.00;101432.44;5264918;28;20028;-77
2024/02/27 01:30:37;;;;;;;15.40;13.05;;;;;;;6.14;100.00;101432.25;5266073;28;20040;-77
2024/02/27 01:33:10;;;;;;;14.15;12.65;;;;;;;6.13;100.00;101433.16;5262273;28;20034;-77
2024/02/27 01:35:42;;;;;;;13.93;11.98;;;;;;;6.15;100.00;101428.75;5263852;28;20037;-76
2024/02/27 01:38:14;;;;;;;14.23;12.63;;;;;;;6.09;100.00;101435.94;5264704;28;20035;-77
2024/02/27 01:40:46;;;;;;;15.95;13.15;;;;;;;6.11;100.00;101437.66;5263485;28;20371;-76
2024/02/27 01:43:25;;;;;;;14.80;12.82;;;;;;;6.22;100.00;101438.72;5259786;28;20028;-77
2024/02/27 01:46:16;;;;;;;16.55;13.00;;;;;;;6.23;100.00;101434.34;5262102;28;20032;-76
2024/02/27 01:48:50;;;;;;;15.13;12.77;;;;;;;6.07;100.00;101437.81;5237174;28;20570;-77
2024/02/27 01:51:23;;;;;;;14.35;12.75;;;;;;;6.14;100.00;101433.09;5260217;28;20043;-77
2024/02/27 01:53:57;;;;;;;15.43;13.07;;;;;;;6.12;100.00;101439.31;5261848;28;20033;-77
2024/02/27 01:56:30;;;;;;;13.57;12.13;;;;;;;6.13;100.00;101443.59;5268136;28;20044;-77
2024/02/27 01:59:02;;;;;;;14.52;12.80;;;;;;;6.16;100.00;101443.41;5285948;28;20035;-77
2024/02/27 02:01:38;;;;;;;15.45;13.10;;;;;;;6.13;100.00;101436.59;5262253;28;20059;-77
2024/02/27 02:04:11;;;;;;;14.02;12.23;;;;;;;6.17;100.00;101453.72;5282687;28;20496;-77
2024/02/27 02:06:44;;;;;;;;;;;;;;;6.80;100.00;101458.75;5285831;28;20028;-76
2024/02/27 02:09:16;;;;;;;14.85;11.55;;;;;;;6.24;100.00;101462.03;5284768;28;20362;-77
2024/02/27 02:11:48;;;;;;;14.70;13.00;;;;;;;6.18;100.00;101452.81;5286613;28;20066;-77
2024/02/27 02:14:20;;;;;;;15.35;13.15;;;;;;;6.20;100.00;101457.91;5280955;28;20028;-77
2024/02/27 02:16:52;;;;;;;16.77;13.95;;;;;;;6.22;100.00;101458.69;5285461;28;20035;-77
2024/02/27 02:19:24;;;;;;;15.88;13.55;;;;;;;6.17;100.00;101469.34;5282398;28;20462;-77
2024/02/27 02:21:57;;;;;;;14.98;13.30;;;;;;;6.21;100.00;101464.78;5279790;28;20042;-77
2024/02/27 02:24:31;;;;;;;15.23;12.93;;;;;;;6.22;100.00;101471.69;5283912;28;20401;-77
2024/02/27 02:27:03;;;;;;;13.93;12.10;;;;;;;6.22;100.00;101471.69;5285967;28;20040;-76
2024/02/27 02:29:35;;;;;;;14.80;13.10;;;;;;;6.23;100.00;101475.97;5285380;28;20029;-76
2024/02/27 02:32:07;;;;;;;15.23;12.57;;;;;;;6.20;100.00;101476.97;5286255;28;20038;-77
2024/02/27 02:34:39;;;;;;;14.32;12.63;;;;;;;6.16;100.00;101472.88;5275405;28;20028;-77
2024/02/27 02:37:11;;;;;;;14.57;12.98;;;;;;;6.20;100.00;101478.72;5288593;28;20184;-77
2024/02/27 02:39:43;;;;;;;14.40;12.90;;;;;;;6.14;100.00;101485.13;5286634;28;20034;-77
2024/02/27 02:42:15;;;;;;;14.00;12.27;;;;;;;6.15;100.00;101493.78;5288684;28;20031;-77
2024/02/27 02:44:46;;;;;;;14.52;12.73;;;;;;;6.13;100.00;101490.41;5286170;28;20385;-77
2024/02/27 02:47:18;;;;;;;14.10;12.30;;;;;;;6.13;100.00;101482.59;5287479;28;20035;-76
2024/02/27 02:49:50;;;;;;;16.15;13.50;;;;;;;6.09;100.00;101487.13;5284779;28;20035;-77
2024/02/27 02:52:22;;;;;;;14.77;13.13;;;;;;;6.07;100.00;101494.19;5290728;28;20036;-77
2024/02/27 02:54:54;;;;;;;14.63;13.05;;;;;;;5.99;100.00;101476.41;5285284;28;20052;-77
2024/02/27 02:57:28;;;;;;;15.45;13.02;;;;;;;6.07;100.00;101500.25;5284824;28;20043;-77
2024/02/27 03:00:00;;;;;;;15.45;12.90;;;;;;;6.09;100.00;101503.56;5284646;28;20032;-77
2024/02/27 03:02:32;;;;;;;16.15;12.60;;;;;;;6.09;100.00;101508.78;5287643;28;20028;-77
2024/02/27 03:05:05;;;;;;;13.63;11.88;;;;;;;6.09;100.00;101508.78;5287082;28;20034;-77
2024/02/27 03:07:37;;;;;;;13.77;12.13;;;;;;;6.12;100.00;101509.56;5287462;28;20033;-77
2024/02/27 03:10:09;;;;;;;14.88;11.98;;;;;;;6.07;100.00;101502.84;5278414;28;20047;-77
2024/02/27 03:12:43;;;;;;;16.38;13.15;;;;;;;6.12;100.00;101507.78;5282243;28;20043;-77
2024/02/27 03:15:14;;;;;;;14.93;11.60;;;;;;;6.09;100.00;101505.34;5284124;28;20389;-77
2024/02/27 03:17:46;;;;;;;13.50;12.10;;;;;;;6.05;100.00;101499.47;5281449;28;20036;-77
2024/02/27 03:20:18;;;;;;;15.65;12.85;;;;;;;6.07;100.00;101497.63;5286349;28;20477;-76
2024/02/27 03:22:50;;;;;;;13.73;12.02;;;;;;;6.09;100.00;101502.75;5285262;28;20031;-77
2024/02/27 03:25:22;;;;;;;15.73;13.40;;;;;;;6.11;100.00;101502.69;5284710;28;20434;-77
2024/02/27 03:27:55;;;;;;;16.58;13.27;;;;;;;6.12;100.00;101491.34;5285869;28;20028;-77
2024/02/27 03:30:27;;;;;;;16.08;12.80;;;;;;;6.16;100.00;101485.03;5282076;28;20698;-77
2024/02/27 03:32:59;;;;;;;16.65;13.13;;;;;;;6.13;100.00;101491.25;5284253;28;20062;-76
2024/02/27 03:35:30;;;;;;;15.05;12.77;;;;;;;6.11;100.00;101498.31;5276991;28;20032;-77
2024/02/27 03:38:03;;;;;;;14.10;12.60;;;;;;;6.08;100.00;101501.91;5283272;28;20043;-77
2024/02/27 03:40:37;;;;;;;14.43;12.50;;;;;;;6.19;100.00;101492.69;5283584;28;20314;-77
2024/02/27 03:43:09;;;;;;;14.45;12.90;;;;;;;6.08;100.00;101490.66;5285688;28;20047;-77
2024/02/27 03:45:41;;;;;;;14.77;13.20;;;;;;;6.07;100.00;101489.84;5284771;28;20036;-77
2024/02/27 03:48:13;;;;;;;16.42;13.20;;;;;;;6.08;100.00;101491.50;5288265;28;20508;-77
2024/02/27 03:50:46;;;;;;;14.55;13.00;;;;;;;6.11;100.00;101481.88;5284910;28;20035;-77
2024/02/27 03:53:17;;;;;;;15.20;12.63;;;;;;;6.07;100.00;101484.63;5282001;28;20036;-77
2024/02/27 03:55:49;;;;;;;14.65;12.68;;;;;;;6.10;100.00;101478.44;5279407;28;20028;-78
2024/02/27 03:58:21;;;;;;;15.40;12.77;;;;;;;6.09;100.00;101482.78;5284389;28;20410;-77
2024/02/27 04:00:53;;;;;;;14.85;12.50;;;;;;;6.07;100.00;101476.81;5285856;28;20028;-76
2024/02/27 04:03:25;;;;;;;14.32;12.27;;;;;;;6.12;100.00;101491.34;5285750;28;20030;-77
2024/02/27 04:05:57;;;;;;;14.00;12.50;;;;;;;6.06;100.00;101489.91;5285197;28;20692;-76
2024/02/27 04:08:29;;;;;;;16.80;13.20;;;;;;;6.04;100.00;101496.97;5283951;28;20047;-77
2024/02/27 04:11:01;;;;;;;16.42;13.70;;;;;;;6.01;100.00;101503.16;5283137;28;20050;-77
2024/02/27 04:13:33;;;;;;;16.52;14.23;;;;;;;5.98;100.00;101512.91;5285100;28;20032;-77
2024/02/27 04:16:05;;;;;;;15.82;13.32;;;;;;;5.97;100.00;101514.66;5284026;28;20108;-77
2024/02/27 04:18:37;;;;;;;15.43;12.85;;;;;;;5.92;100.00;101521.88;5283074;28;20028;-76
2024/02/27 04:21:09;;;;;;;16.10;13.32;;;;;;;5.95;100.00;101521.72;5287521;28;20536;-77
2024/02/27 04:23:40;;;;;;;14.98;12.50;;;;;;;5.85;100.00;101526.53;5284492;28;20028;-76
2024/02/27 04:26:12;;;;;;;14.70;11.90;;;;;;;5.85;100.00;101531.75;5286506;28;20453;-77
2024/02/27 04:28:44;;;;;;;14.57;13.00;;;;;;;5.81;100.00;101529.41;5281210;28;20024;-77
2024/02/27 04:31:16;;;;;;;15.55;13.18;;;;;;;5.80;100.00;101522.53;5281005;28;20040;-77
2024/02/27 04:33:48;;;;;;;15.18;13.48;;;;;;;5.74;100.00;101522.84;5286473;28;20033;-76
2024/02/27 04:36:20;;;;;;;14.52;12.32;;;;;;;5.71;100.00;101531.63;5284587;28;20563;-77
2024/02/27 04:38:52;;;;;;;16.27;13.18;;;;;;;5.74;100.00;101533.25;5284559;28;20089;-76
2024/02/27 04:41:24;;;;;;;15.82;13.02;;;;;;;5.68;100.00;101528.38;5281049;28;20036;-77
2024/02/27 04:43:56;;;;;;;19.30;13.98;;;;;;;5.65;100.00;101531.16;5280803;28;20044;-76
2024/02/27 04:46:27;;;;;;;17.73;13.13;;;;;;;5.58;100.00;101534.06;5287673;28;20040;-77
2024/02/27 04:48:59;;;;;;;15.25;12.85;;;;;;;5.56;100.00;101543.69;5285125;28;20796;-77
2024/02/27 04:51:31;;;;;;;14.27;11.65;;;;;;;5.52;100.00;101536.97;5281176;28;20036;-76
2024/02/27 04:54:03;;;;;;;14.15;12.27;;;;;;;5.50;100.00;101549.22;5283704;28;20044;-76
2024/02/27 04:56:41;;;;;;;14.95;12.02;;;;;;;5.53;100.00;101549.06;5276551;28;20119;-77
2024/02/27 04:59:13;;;;;;;14.48;12.35;;;;;;;5.40;100.00;101555.81;5254276;28;20561;-76
2024/02/27 05:01:49;;;;;;;14.73;11.93;;;;;;;5.41;100.00;101559.25;5256177;28;20037;-77
2024/02/27 05:04:21;;;;;;;14.98;11.63;;;;;;;5.28;100.00;101562.47;5257311;28;20037;-77
2024/02/27 05:06:53;;;;;;;14.52;12.07;;;;;;;5.22;100.00;101567.97;5258522;28;20086;-77
2024/02/27 05:09:25;;;;;;;13.73;11.38;;;;;;;5.23;100.00;101572.28;5251295;28;20035;-77
2024/02/27 05:11:57;;;;;;;13.82;11.00;;;;;;;5.17;100.00;101574.34;5254897;28;20033;-76
2024/02/27 05:14:29;;;;;;;14.70;12.07;;;;;;;5.10;100.00;101571.19;5254604;28;20044;-77
2024/02/27 05:17:01;;;;;;;13.23;11.23;;;;;;;5.08;100.00;101576.47;5257635;28;20465;-77
2024/02/27 05:19:32;;;;;;;14.27;10.73;;;;;;;4.89;100.00;101565.34;5240970;28;20379;-77
2024/02/27 05:22:04;;;;;;;13.02;10.65;;;;;;;5.01;100.00;101582.06;5255244;28;20032;-77
2024/02/27 05:24:36;;;;;;;13.80;11.48;;;;;;;4.90;100.00;101585.19;5255961;28;20036;-76
2024/02/27 05:27:08;;;;;;;14.05;11.57;;;;;;;4.86;100.00;101583.66;5253287;28;20482;-77
2024/02/27 05:29:40;;;;;;;16.35;12.63;;;;;;;4.83;100.00;101589.00;5242514;28;20036;-77
2024/02/27 05:32:12;;;;;;;14.20;10.73;;;;;;;4.79;100.00;101597.84;5254009;28;20040;-76
2024/02/27 05:34:44;;;;;;;14.07;10.88;;;;;;;4.79;100.00;101595.25;5255281;28;20425;-76
2024/02/27 05:37:16;;;;;;;14.00;10.98;;;;;;;4.91;100.00;101599.00;5251491;28;20035;-76
2024/02/27 05:39:48;;;;;;;14.93;10.75;;;;;;;4.87;100.00;101593.94;5254563;28;20028;-76
2024/02/27 05:42:21;;;;;;;12.27;10.00;;;;;;;4.88;100.00;101608.59;5256556;28;20036;-76
2024/02/27 05:44:53;;;;;;;15.60;12.73;;;;;;;4.87;100.00;101612.13;5235929;28;20500;-76
2024/02/27 05:47:26;;;;;;;14.88;11.68;;;;;;;4.73;100.00;101601.56;5254736;28;20040;-77
2024/02/27 05:49:58;;;;;;;14.30;11.30;;;;;;;4.86;100.00;101626.03;5257387;28;20490;-76
2024/02/27 05:52:29;;;;;;;15.27;11.50;;;;;;;4.82;100.00;101632.28;5257963;28;20048;-76
2024/02/27 05:55:01;;;;;;;17.00;11.05;;;;;;;4.80;100.00;101630.66;5257582;28;20032;-76
2024/02/27 05:57:33;;;;;;;14.15;11.35;;;;;;;4.75;100.00;101623.09;5276786;28;20521;-77
2024/02/27 06:00:08;;;;;;;15.20;11.50;;;;;;;4.77;100.00;101630.81;5286919;28;20039;-76
2024/02/27 06:02:40;;;;;;;12.98;10.73;;;;;;;4.73;100.00;101626.69;5283369;28;20524;-76
2024/02/27 06:05:12;;;;;;;13.57;11.73;;;;;;;4.71;100.00;101641.50;5283087;28;20032;-76
2024/02/27 06:07:45;;;;;;;14.98;11.13;;;;;;;4.68;100.00;101637.28;5287009;28;20032;-76
2024/02/27 06:10:17;;;;;;;15.85;11.20;;;;;;;4.61;100.00;101618.56;5287278;28;20020;-76
2024/02/27 06:12:50;;;;;;;15.48;11.93;;;;;;;4.73;100.00;101652.63;5281600;28;20028;-76
2024/02/27 06:15:22;;;;;;;15.85;11.43;;;;;;;4.60;100.00;101642.84;5284657;28;20036;-76
2024/02/27 06:17:54;;;;;;;13.82;11.23;;;;;;;4.68;100.00;101667.59;5287403;28;20043;-76
2024/02/27 06:23:17;;;;;;;13.82;11.25;;;;;;;4.70;100.00;101673.53;5287381;28;20033;-76
2024/02/27 06:25:48;;;;;;;16.00;12.90;;;;;;;4.71;100.00;101686.47;5287455;28;20424;-76
2024/02/27 06:28:22;;;;;;;16.25;11.98;;;;;;;4.71;100.00;101673.50;5282230;28;20028;-76
2024/02/27 06:30:53;;;;;;;;;;;;;;;5.35;100.00;101674.75;5286557;28;20043;-76
2024/02/27 06:33:25;;;;;;;17.40;12.32;;;;;;;4.78;100.00;101679.25;5284758;28;19927;-76
2024/02/27 06:35:57;;;;;;;15.52;12.30;;;;;;;4.76;100.00;101689.69;5285827;28;20042;-76
2024/02/27 06:38:29;;;;;;;15.60;11.30;;;;;;;4.74;100.00;101696.72;5284951;28;20040;-77
2024/02/27 06:41:01;;;;;;;16.92;12.57;;;;;;;4.75;100.00;101688.00;5286492;28;20042;-77
2024/02/27 06:43:34;;;;;;;16.02;12.32;;;;;;;4.78;100.00;101695.66;5284970;28;20028;-76
2024/02/27 06:46:06;;;;;;;15.80;12.63;;;;;;;4.83;100.00;101685.03;5286601;28;20031;-76
2024/02/27 06:48:38;;;;;;;14.73;11.88;;;;;;;4.83;100.00;101687.66;5283798;28;20039;-76
2024/02/27 06:51:11;;;;;;;14.77;12.43;;;;;;;4.84;100.00;101697.09;5288158;28;20436;-76
2024/02/27 06:53:42;;;;;;;17.00;13.10;;;;;;;4.88;100.00;101691.69;5281351;28;20028;-76
2024/02/27 06:56:14;;;;;;;14.95;12.73;;;;;;;4.87;100.00;101694.38;5283035;28;20501;-76
2024/02/27 06:58:49;;;;;;;16.88;12.73;;;;;;;4.89;100.00;101687.38;5272437;28;20330;-76
2024/02/27 07:01:21;;;;;;;15.52;13.13;;;;;;;4.93;100.00;101686.31;5283384;28;20028;-76
2024/02/27 07:03:53;;;;;;;16.20;13.52;;;;;;;4.94;100.00;101687.97;5282414;28;20047;-76
2024/02/27 07:06:25;;;;;;;16.38;12.23;;;;;;;4.92;100.00;101688.94;5284524;28;20540;-76
2024/02/27 07:08:58;;;;;;;14.85;12.23;;;;;;;4.93;100.00;101686.31;5284265;28;20024;-76
2024/02/27 07:11:33;;;;;;;14.63;12.63;;;;;;;4.96;100.00;101680.94;5284892;28;20425;-76
2024/02/27 07:14:05;;;;;;;16.75;12.95;;;;;;;4.85;100.00;101659.88;5276590;28;20028;-76
2024/02/27 07:16:36;;;;;;;16.38;12.55;;;;;;;4.93;100.00;101670.72;5288980;28;20036;-76
2024/02/27 07:19:08;;;;;;;15.85;12.70;;;;;;;4.93;100.00;101675.91;5282803;28;20389;-76
2024/02/27 07:21:40;;;;;;;14.90;12.18;;;;;;;4.95;100.00;101687.06;5288538;28;20307;-76
2024/02/27 07:24:12;;;;;;;15.45;12.48;;;;;;;4.92;100.00;101675.97;5288350;28;20031;-76
2024/02/27 07:26:44;;;;;;;16.02;13.13;;;;;;;4.93;100.00;101686.31;5269775;28;20504;-76
2024/02/27 07:29:16;;;;;;;15.00;13.13;;;;;;;4.96;100.00;101691.31;5286421;28;20028;-76
2024/02/27 07:31:48;;;;;;;16.95;13.80;;;;;;;4.96;100.00;101699.13;5275949;28;20039;-76
2024/02/27 07:34:21;;;;;;;17.63;13.45;;;;;;;4.95;100.00;101701.81;5287685;28;20027;-76
2024/02/27 07:36:52;;;;;;;16.58;13.32;;;;;;;5.02;100.00;101706.63;5288122;28;20027;-76
2024/02/27 07:39:24;;;;;;;16.67;12.88;;;;;;;5.04;100.00;101707.41;5287573;28;20035;-76
2024/02/27 07:41:56;;;;;;;17.23;13.70;;;;;;;5.13;100.00;101708.72;5289605;28;20032;-76
2024/02/27 07:44:28;;;;;;;16.05;13.25;;;;;;;5.10;100.00;101703.66;5285461;28;20122;-76
2024/02/27 07:47:00;;;;;;;18.75;14.52;;;;;;;5.18;100.00;101708.50;5282962;28;20051;-76
2024/02/27 07:49:32;;;;;;;15.70;13.27;;;;;;;5.21;100.00;101706.59;5284809;28;20032;-76
2024/02/27 07:52:05;;;;;;;16.85;13.45;;;;;;;5.16;100.00;101710.34;5287747;28;20043;-76
2024/02/27 07:54:38;;;;;;;;;;;;;;;5.76;100.00;101713.41;5289967;28;20031;-76
2024/02/27 07:57:11;;;;;;;15.93;12.57;;;;;;;5.22;100.00;101710.03;5286353;28;19920;-76
2024/02/27 07:59:43;;;;;;;16.15;13.02;;;;;;;5.26;100.00;101714.16;5285316;28;20289;-76
2024/02/27 08:02:14;;;;;;;17.05;13.20;;;;;;;5.21;100.00;101722.16;5289029;28;20024;-76
2024/02/27 08:04:46;;;;;;;17.75;13.52;;;;;;;5.19;100.00;101718.81;5288222;28;20042;-76
2024/02/27 08:07:18;;;;;;;17.58;13.77;;;;;;;5.24;100.00;101719.44;5284836;28;20032;-76
2024/02/27 08:09:50;;;;;;;16.77;12.93;;;;;;;5.30;100.00;101720.88;5287678;28;20195;-76
2024/02/27 08:12:22;;;;;;;18.98;14.23;;;;;;;5.31;100.00;101723.41;5289154;28;20028;-76
2024/02/27 08:14:54;;;;;;;20.45;13.02;;;;;;;5.39;100.00;101730.00;5286400;28;20032;-76
2024/02/27 08:17:26;;;;;;;17.08;13.70;;;;;;;5.44;100.00;101725.41;5288854;28;20034;-76
2024/02/27 08:19:58;;;;;;;16.50;13.40;;;;;;;5.46;100.00;101721.00;5287051;28;20474;-76
2024/02/27 08:22:31;;;;;;;16.02;13.93;;;;;;;5.56;100.00;101725.63;5287537;28;20051;-76
2024/02/27 08:25:03;;;;;;;17.20;13.45;;;;;;;5.58;100.00;101736.81;5286338;28;20036;-76
2024/02/27 08:27:35;;;;;;;17.77;13.60;;;;;;;5.64;100.00;101746.03;5286493;28;20047;-76
2024/02/27 08:30:08;;;;;;;17.02;13.30;;;;;;;5.69;100.00;101744.09;5287276;28;20300;-76
2024/02/27 08:32:40;;;;;;;16.83;14.05;;;;;;;5.81;100.00;101750.41;5280489;28;20032;-76
2024/02/27 08:35:12;;;;;;;16.07;12.53;;;;;;;5.83;100.00;101754.63;5286755;28;20147;-76
2024/02/27 08:37:44;;;;;;;16.55;13.25;;;;;;;5.88;100.00;101754.41;5288676;28;20373;-76
2024/02/27 08:40:16;;;;;;;14.23;12.07;;;;;;;5.96;100.00;101761.84;5288710;28;20039;-76
2024/02/27 08:42:48;;;;;;;16.80;13.57;;;;;;;5.99;100.00;101748.69;5286611;28;20115;-76
2024/02/27 08:45:20;;;;;;;16.42;13.25;;;;;;;6.13;100.00;101763.56;5287150;28;20047;-76
2024/02/27 08:47:52;;;;;;;18.25;14.70;;;;;;;6.16;100.00;101766.84;5287828;28;20032;-76
2024/02/27 08:50:24;;;;;;;16.48;13.45;;;;;;;6.26;100.00;101772.44;5284725;28;20403;-76
2024/02/27 08:52:56;;;;;;;19.58;14.23;;;;;;;6.28;100.00;101776.63;5288109;28;20028;-76
2024/02/27 08:55:30;;;;;;;16.33;13.98;;;;;;;6.39;100.00;101786.47;5283940;28;20562;-76
2024/02/27 08:58:01;;;;;;;14.75;13.00;;;;;;;6.36;100.00;101783.19;5282239;28;20032;-76
2024/02/27 09:00:33;;;;;;;16.10;13.52;;;;;;;6.49;100.00;101784.25;5286022;28;20032;-76
2024/02/27 09:03:06;;;;;;;15.45;13.13;;;;;;;6.54;100.00;101772.66;5288049;28;21137;-76
2024/02/27 09:05:37;;;;;;;15.82;12.88;;;;;;;6.62;100.00;101782.66;5287364;28;20043;-76
2024/02/27 09:08:14;;;;;;;14.43;12.93;;;;;;;6.58;100.00;101766.38;5284800;28;20401;-76
2024/02/27 09:10:46;;;;;;;15.55;13.13;;;;;;;6.54;100.00;101770.06;5287708;28;20028;-76
2024/02/27 09:13:18;;;;;;;16.50;13.20;;;;;;;6.66;100.00;101780.75;5287482;28;20031;-76
2024/02/27 09:15:50;;;;;;;14.15;12.05;;;;;;;6.73;100.00;101785.53;5283419;28;20493;-76
2024/02/27 09:18:22;;;;;;;16.33;12.70;;;;;;;6.73;100.00;101782.94;5286129;28;20023;-76
2024/02/27 09:20:54;;;;;;;15.85;13.32;;;;;;;6.79;100.00;101774.81;5288473;28;20043;-76
2024/02/27 09:23:25;;;;;;;15.25;12.32;;;;;;;6.81;100.00;101783.34;5286253;28;20366;-76
2024/02/27 09:25:57;;;;;;;14.75;12.55;;;;;;;6.91;100.00;101778.50;5285018;28;20040;-76
2024/02/27 09:28:29;;;;;;;15.90;13.63;;;;;;;6.98;100.00;101766.84;5283506;28;20036;-76
2024/02/27 09:31:04;;;;;;;14.80;12.68;;;;;;;7.14;100.00;101773.81;5283376;28;20039;-77
2024/02/27 09:33:35;;;;;;;16.67;12.23;;;;;;;7.10;100.00;101762.69;5279715;28;20037;-76
2024/02/27 09:36:08;;;;;;;13.55;11.80;;;;;;;7.31;100.00;101776.28;5284781;28;20031;-76
2024/02/27 09:38:40;;;;;;;14.35;11.70;;;;;;;7.41;100.00;101779.22;5288411;28;20032;-76
2024/02/27 09:41:38;;;;;;;13.73;12.02;;;;;;;7.63;100.00;101779.69;5289020;28;20344;-77
2024/02/27 09:44:10;;;;;;;15.05;12.23;;;;;;;7.47;100.00;101778.91;5287280;28;20028;-77
2024/02/27 09:46:45;;;;;;;13.15;11.27;;;;;;;7.46;100.00;101762.41;5285075;28;20528;-77
2024/02/27 09:49:18;;;;;;;12.98;11.57;;;;;;;7.54;100.00;101780.22;5286215;28;20023;-77
2024/02/27 09:51:54;;;;;;;14.02;11.82;;;;;;;7.74;100.00;101786.91;5284583;28;20069;-77
2024/02/27 09:54:26;;;;;;;15.02;11.32;;;;;;;7.60;100.00;101782.47;5284563;28;20393;-78
2024/02/27 09:56:59;;;;;;;12.73;10.88;;;;;;;7.70;100.00;101780.19;5283999;28;20036;-77
2024/02/27 09:59:31;;;;;;;14.50;11.90;;;;;;;7.66;100.00;101782.13;5277639;28;20040;-77
2024/02/27 10:02:08;;;;;;;14.27;11.00;;;;;;;7.74;100.00;101773.84;5283906;28;20039;-77
2024/02/27 10:04:40;;;;;;;15.40;11.07;;;;;;;7.74;100.00;101789.50;5275742;28;20058;-77
2024/02/27 10:07:15;;;;;;;15.48;11.55;;;;;;;7.96;100.00;101781.28;5283421;28;20443;-77
2024/02/27 10:09:47;;;;;;;12.60;10.90;;;;;;;7.99;100.00;101776.72;5280770;28;20485;-77
2024/02/27 10:12:19;;;;;;;15.07;11.98;;;;;;;8.05;100.00;101775.50;5284632;28;20108;-78
2024/02/27 10:14:51;;;;;;;12.82;11.20;;;;;;;8.09;100.00;101778.78;5284857;28;20035;-78
2024/02/27 10:17:23;;;;;;;12.88;11.48;;;;;;;8.23;100.00;101782.25;5269616;28;20168;-77
2024/02/27 10:19:55;;;;;;;12.13;10.48;;;;;;;8.26;100.00;101786.44;5278700;28;20029;-77
2024/02/27 10:22:29;;;;;;;13.10;10.55;;;;;;;8.39;100.00;101781.34;5279619;28;20409;-78
2024/02/27 10:25:10;;;;;;;11.23;10.13;;;;;;;8.48;100.00;101765.09;5278315;28;20028;-78
2024/02/27 10:27:43;;;;;;;13.10;10.70;;;;;;;8.46;100.00;101780.88;5276662;28;20044;-77
2024/02/27 10:30:17;;;;;;;12.05;10.75;;;;;;;8.63;100.00;101789.44;5279405;28;20487;-77
2024/02/27 10:32:49;;;;;;;12.63;11.27;;;;;;;8.68;100.00;101785.63;5281576;28;20028;-78
2024/02/27 10:35:23;;;;;;;12.90;10.60;;;;;;;8.82;100.00;101783.94;5284581;28;20020;-78
2024/02/27 10:37:56;;;;;;;12.93;11.18;;;;;;;8.82;100.00;101786.53;5280700;28;20039;-78
2024/02/27 10:40:29;;;;;;;13.32;11.52;;;;;;;8.92;100.00;101798.09;5282328;28;20043;-78
2024/02/27 10:43:01;;;;;;;13.77;11.00;;;;;;;8.89;100.00;101799.13;5284268;28;20043;-78
2024/02/27 10:45:34;;;;;;;13.13;10.63;;;;;;;8.90;100.00;101800.81;5284729;28;20485;-78
2024/02/27 10:48:07;;;;;;;;;;;;;;;9.67;100.00;101798.53;5283504;28;20024;-78
2024/02/27 10:50:40;;;;;;;13.02;10.90;;;;;;;9.17;100.00;101805.25;5287603;28;20302;-78
2024/02/27 10:53:13;;;;;;;12.00;10.48;;;;;;;9.21;100.00;101796.28;5289584;28;20039;-78
2024/02/27 10:55:48;;;;;;;13.07;11.70;;;;;;;9.38;100.00;101803.03;5284490;28;20032;-78
2024/02/27 10:58:21;;;;;;;13.27;10.77;;;;;;;9.25;100.00;101798.59;5285085;28;20028;-78
2024/02/27 11:00:53;;;;;;;13.60;11.43;;;;;;;9.37;100.00;101796.97;5288410;28;20035;-77
2024/02/27 11:03:28;;;;;;;12.80;10.07;;;;;;;9.51;100.00;101801.31;5278656;28;20707;-78
2024/02/27 11:06:01;;;;;;;11.20;9.82;;;;;;;9.50;100.00;101795.22;5282314;28;20040;-78
2024/02/27 11:08:33;;;;;;;11.60;10.40;;;;;;;9.45;100.00;101792.06;5282067;28;20489;-79
2024/02/27 11:11:05;;;;;;;11.83;10.63;;;;;;;9.50;100.00;101776.06;5291041;28;20028;-79
2024/02/27 11:13:40;;;;;;;12.75;10.98;;;;;;;9.57;100.00;101781.75;5288466;28;20087;-78
2024/02/27 11:16:16;;;;;;;12.48;10.43;;;;;;;9.73;100.00;101779.78;5291305;28;20031;-79
2024/02/27 11:18:57;;;;;;;11.40;10.20;;;;;;;9.87;100.00;101787.56;5292266;28;20752;-79
2024/02/27 11:21:30;;;;;;;12.35;10.57;;;;;;;9.73;100.00;101787.63;5289926;28;20044;-79
2024/02/27 11:24:03;;;;;;;11.38;10.15;;;;;;;9.87;100.00;101766.63;5289392;28;20043;-79
2024/02/27 11:26:35;;;;;;;;;;;;;;;10.69;100.00;101767.16;5289478;28;20328;-79
2024/02/27 11:29:08;;;;;;;10.40;9.30;;;;;;;10.09;100.00;101771.25;5271284;28;19917;-79
2024/02/27 11:31:41;;;;;;;11.32;10.13;;;;;;;9.99;100.00;101759.72;5288393;28;20028;-79
2024/02/27 11:34:22;;;;;;;13.15;10.50;;;;;;;10.24;100.00;101761.53;5287224;28;20039;-79
2024/02/27 11:37:14;;;;;;;11.98;10.57;;;;;;;10.58;100.00;101769.69;5294426;28;20032;-79